Nearby METAR Reports

 

KCFV - Coffeyville, Kansas, USA
Distance from station: ENE 93mi, 150km
Updated: Sat, 07-24-2021 8:52pm CDT
Few Clouds
Few Clouds
 Wind from calm
Wind: Calm
Temperature: 88°F , 31°C
Heat Index: 98°F , 37°C
Dew Point: 75°F , 24°C
Humidity: 66%
Barometer: 1014.2 hPa
Clouds: Few Clouds
Visibility: 10 miles , 16 km
Cloud details: Few Clouds 4600 ft
2021/07/25 01:52 KCFV 250152Z AUTO 00000KT 10SM FEW046 31/24 A2995 RMK AO2 SLP132 T03060244
KIDP - Independence, Kansas, USA
Distance from station: NE 86mi, 138km
Updated: Sat, 07-24-2021 9:35pm CDT
Clear
Clear
 Wind from SE
Wind: SE 7 mph , 11 km/h
Temperature: 84°F , 29°C
Heat Index: 96°F , 36°C
Dew Point: 79°F , 26°C
Humidity: 84%
Barometer: 1014.9 hPa
Clouds: Clear
Visibility: 10 miles , 16 km
2021/07/25 02:35 KIDP 250235Z AUTO 14006KT 10SM CLR 29/26 A2997 RMK AO2 T02880257
KIAB - Mcconnell Afb, Kansas, USA
Distance from station: N 84mi, 135km
Updated: Sat, 07-24-2021 8:56pm CDT
Clear
Clear
 Wind from SSE
Wind: SSE 8 mph , 13 km/h
Temperature: 90°F , 32°C
Heat Index: 99°F , 37°C
Dew Point: 73°F , 23°C
Humidity: 59%
Barometer: 1014.9 hPa
Clouds: Clear
Visibility: 10 miles , 16 km
2021/07/25 01:56 KIAB 250156Z AUTO 15007KT 10SM CLR 32/23 A2997 RMK AO2 SLP135 T03150230 $
 
KICT - Wichita, Kansas, USA
Distance from station: NNW 88mi, 142km
Updated: Sat, 07-24-2021 8:53pm CDT
Clear
Clear
 Wind from SE
Wind: SE 9 mph , 15 km/h
Temperature: 88°F , 31°C
Heat Index: 96°F , 36°C
Dew Point: 73°F , 23°C
Humidity: 62%
Barometer: 1014.2 hPa
Clouds: Clear
Visibility: 10 miles , 16 km
2021/07/25 01:53 KICT 250153Z 13008KT 10SM CLR 31/23 A2995 RMK AO2 SLP125 T03110233 $
KAAO - Wichita/Jabara, Kansas, USA
Distance from station: N 93mi, 149km
Updated: Sat, 07-24-2021 8:54pm CDT
Few Clouds
Few Clouds
 Wind from ESE
Wind: ESE 6 mph , 9 km/h
Temperature: 86°F , 30°C
Heat Index: 93°F , 34°C
Dew Point: 73°F , 23°C
Humidity: 66%
Barometer: 1014.9 hPa
Clouds: Few Clouds
Visibility: 10 miles , 16 km
Cloud details: Few Clouds 7500 ft
2021/07/25 01:54 KAAO 250154Z AUTO 11005KT 10SM FEW075 30/23 A2997 RMK AO2 SLP131 T03000228
KWLD - Winfield/Arkansa, Kansas, USA
Distance from station: N 52mi, 84km
Updated: Sat, 07-24-2021 8:54pm CDT
Clear
Clear
 Wind from SE
Wind: SE 6 mph , 9 km/h
Temperature: 88°F , 31°C
Heat Index: 98°F , 37°C
Dew Point: 75°F , 24°C
Humidity: 66%
Barometer: 1014.9 hPa
Clouds: Clear
Visibility: 10 miles , 16 km
2021/07/25 01:54 KWLD 250154Z AUTO 13005KT 10SM CLR 31/24 A2997 RMK AO2 SLP133 T03110239
 
KAVK - Alva, Oklahoma, USA
Distance from station: WNW 94mi, 152km
Updated: Sat, 07-24-2021 9:35pm CDT
Clear
Clear
 Wind from SSE
Wind: SSE 10 mph , 17 km/h
Temperature: 90°F , 32°C
Heat Index: 93°F , 34°C
Dew Point: 66°F , 19°C
Humidity: 46%
Barometer: 1014.6 hPa
Clouds: Clear
Visibility: 10 miles , 16 km
2021/07/25 02:35 KAVK 250235Z AUTO 16009KT 10SM CLR 32/19 A2996 RMK AO2
KBVO - Bartlesville, Oklahoma, USA
Distance from station: ENE 61mi, 98km
Updated: Sat, 07-24-2021 8:53pm CDT
Clear
Clear
 Wind from calm
Wind: Calm
Temperature: 82°F , 28°C
Heat Index: 93°F , 34°C
Dew Point: 81°F , 27°C
Humidity: 94%
Barometer: 1014.2 hPa
Clouds: Clear
Visibility: 10 miles , 16 km
2021/07/25 01:53 KBVO 250153Z AUTO 00000KT 10SM CLR 28/27 A2995 RMK AO2 SLP131 T02830267
KBKN - Blackwell, Oklahoma, USA
Distance from station: NW 29mi, 47km
Updated: Sat, 07-24-2021 9:35pm CDT
Clear
Clear
 Wind from ESE
Wind: ESE 5 mph , 7 km/h
Barometer: 1014.2 hPa
Clouds: Clear
Visibility: 10 miles , 16 km
2021/07/25 02:35 KBKN 250235Z AUTO 11004KT 10SM CLR A2995 RMK AO2
 
KGCM - Claremore, Oklahoma, USA
Distance from station: E 86mi, 138km
Updated: Sat, 07-24-2021 9:35pm CDT
Partly cloudy
Partly cloudy
 Wind from calm
Wind: Calm
Temperature: 82°F , 28°C
Heat Index: 89°F , 32°C
Dew Point: 75°F , 24°C
Humidity: 79%
Barometer: 1015.2 hPa
Clouds: Partly cloudy
Visibility: 7 miles , 11 km
Cloud details: Partly cloudy 5000 ft
2021/07/25 02:35 KGCM 250235Z AUTO 00000KT 7SM SCT050 28/24 A2998 RMK AO2
KCQB - Chandler, Oklahoma, USA
Distance from station: SSE 50mi, 80km
Updated: Sat, 07-24-2021 9:35pm CDT
Clear
Clear
 Wind from SSE
Wind: SSE 5 mph , 7 km/h
Temperature: 82°F , 28°C
Heat Index: 89°F , 32°C
Dew Point: 75°F , 24°C
Humidity: 79%
Barometer: 1014.9 hPa
Clouds: Clear
Visibility: 10 miles , 16 km
2021/07/25 02:35 KCQB 250235Z AUTO 16004KT 10SM CLR 28/24 A2997 RMK AO2 T02820241
KCUH - Cushing, Oklahoma, USA
Distance from station: SSE 35mi, 57km
Updated: Sat, 07-24-2021 9:35pm CDT
Clear
Clear
 Wind from calm
Wind: Calm
Temperature: 81°F , 27°C
Heat Index: 88°F , 31°C
Dew Point: 77°F , 25°C
Humidity: 89%
Barometer: 1014.6 hPa
Clouds: Clear
Visibility: 10 miles , 16 km
2021/07/25 02:35 KCUH 250235Z AUTO 00000KT 10SM CLR 27/25 A2996 RMK AO2 T02730250
 
KRQO - El Reno Muni, Oklahoma, USA
Distance from station: SW 85mi, 137km
Updated: Sat, 07-24-2021 9:35pm CDT
Clear
Clear
 Wind from SSE
Wind: SSE 8 mph , 13 km/h
Temperature: 82°F , 28°C
Heat Index: 86°F , 30°C
Dew Point: 72°F , 22°C
Humidity: 70%
Barometer: 1015.9 hPa
Clouds: Clear
Visibility: 7 miles , 11 km
2021/07/25 02:35 KRQO 250235Z AUTO 15007KT 7SM CLR 28/22 A3000 RMK AO2 T02770225
KEND - Enid/Vance Afb, Oklahoma, USA
Distance from station: W 50mi, 81km
Updated: Sat, 07-24-2021 8:56pm CDT
Clear
Clear
 Wind from SSE
Wind: SSE 9 mph , 15 km/h
Temperature: 88°F , 31°C
Heat Index: 93°F , 34°C
Dew Point: 70°F , 21°C
Humidity: 55%
Barometer: 1013.9 hPa
Clouds: Clear
Visibility: 10 miles , 16 km
2021/07/25 01:56 KEND 250156Z AUTO 16008KT 10SM CLR 31/21 A2994 RMK AO2 SLP124 T03090213 $
KWDG - Enid/Woodring, Oklahoma, USA
Distance from station: W 42mi, 67km
Updated: Sat, 07-24-2021 9:35pm CDT
Clear
Clear
 Wind from SSE
Wind: SSE 6 mph , 9 km/h
Temperature: 82°F , 28°C
Heat Index: 86°F , 30°C
Dew Point: 72°F , 22°C
Humidity: 70%
Barometer: 1013.9 hPa
Clouds: Clear
Visibility: 10 miles , 16 km
2021/07/25 02:35 KWDG 250235Z AUTO 16005KT 10SM CLR 28/22 A2994 RMK AO2
 
KGOK - Guthrie, Oklahoma, USA
Distance from station: SSW 44mi, 71km
Updated: Sat, 07-24-2021 8:53pm CDT
Clear
Clear
 Wind from SSE
Wind: SSE 7 mph , 11 km/h
Temperature: 90°F , 32°C
Heat Index: 101°F , 38°C
Dew Point: 75°F , 24°C
Humidity: 63%
Barometer: 1014.2 hPa
Clouds: Clear
Visibility: 10 miles , 16 km
2021/07/25 01:53 KGOK 250153Z AUTO 15006KT 10SM CLR 32/24 A2995 RMK AO2 SLP129 T03170244 $
KOUN - Norman/Westheime, Oklahoma, USA
Distance from station: SSW 84mi, 136km
Updated: Sat, 07-24-2021 9:47pm CDT
Clear
Clear
 Wind from SE
Wind: SE 7 mph , 11 km/h
Temperature: 86°F , 30°C
Heat Index: 93°F , 34°C
Dew Point: 73°F , 23°C
Humidity: 66%
Barometer: 1014.9 hPa
Clouds: Clear
Visibility: 10 miles , 16 km
2021/07/25 02:47 KOUN 250247Z 13006KT 10SM CLR 30/23 A2997
KOKC - Oklahoma City, Oklahoma, USA
Distance from station: SSW 78mi, 126km
Updated: Sat, 07-24-2021 8:52pm CDT
Few Clouds
Few Clouds
 Wind from S
Wind: S 6 mph , 9 km/h
Temperature: 82°F , 28°C
Heat Index: 86°F , 30°C
Dew Point: 72°F , 22°C
Humidity: 70%
Barometer: 1014.6 hPa
Clouds: Few Clouds
Visibility: 10 miles , 16 km
Cloud details: Few Clouds 13000 ft
2021/07/25 01:52 KOKC 250152Z 17005KT 10SM FEW130 28/22 A2996 RMK AO2 SLP127 T02830222
 
KPWA - Okla City/Wiley, Oklahoma, USA
Distance from station: SSW 70mi, 113km
Updated: Sat, 07-24-2021 8:53pm CDT
Clear
Clear
 Wind from S
Wind: S 8 mph , 13 km/h
Temperature: 86°F , 30°C
Heat Index: 92°F , 33°C
Dew Point: 72°F , 22°C
Humidity: 62%
Barometer: 1014.6 hPa
Clouds: Clear
Visibility: 10 miles , 16 km
2021/07/25 01:53 KPWA 250153Z 18007KT 10SM CLR 30/22 A2996 RMK AO2 SLP125 T03000217
KRCE - Okla City/Page, Oklahoma, USA
Distance from station: SW 78mi, 126km
Updated: Sat, 07-24-2021 9:35pm CDT
Haze, Clear
Haze, Clear
 Wind from SSE
Wind: SSE 8 mph , 13 km/h
Temperature: 81°F , 27°C
Heat Index: 86°F , 30°C
Dew Point: 73°F , 23°C
Humidity: 79%
Barometer: 1015.2 hPa
Summary: Haze
Clouds: Clear
Visibility: 3 miles , 5 km
2021/07/25 02:35 KRCE 250235Z AUTO 15007KT 3SM HZ CLR 27/23 A2998 RMK AO2
KOKM - Okmulgee, Oklahoma, USA
Distance from station: SE 79mi, 127km
Updated: Sat, 07-24-2021 9:35pm CDT
Clear
Clear
 Wind from S
Wind: S 3 mph , 6 km/h
Temperature: 86°F , 30°C
Heat Index: 97°F , 36°C
Dew Point: 77°F , 25°C
Humidity: 75%
Barometer: 1014.6 hPa
Clouds: Clear
Visibility: 10 miles , 16 km
2021/07/25 02:35 KOKM 250235Z AUTO 18003KT 10SM CLR 30/25 A2996 RMK AO2 T02950250
 
KPNC - Ponca City, Oklahoma, USA
Distance from station: N 22mi, 36km
Updated: Sat, 07-24-2021 9:03pm CDT
Light rain, Few clouds
Light rain, Few clouds
 
Temperature: 79°F , 26°C
Dew Point: 70°F , 21°C
Humidity: 74%
Barometer: 1013.9 hPa
Summary: Light rain
Clouds: Few Clouds
Visibility: 10 miles , 16 km
Cloud details: Few Clouds 9000 ft
Few Clouds 11000 ft
2021/07/25 02:03 KPNC 250203Z AUTO 10SM -RA FEW090 FEW110 26/21 A2994 RMK AO2 TSE0157 P0000 T02610211
KSNL - Shawnee, Oklahoma, USA
Distance from station: S 74mi, 119km
Updated: Sat, 07-24-2021 9:35pm CDT
Clear
Clear
 Wind from S
Wind: S 7 mph , 11 km/h
Temperature: 84°F , 29°C
Heat Index: 89°F , 32°C
Dew Point: 72°F , 22°C
Humidity: 66%
Barometer: 1015.2 hPa
Clouds: Clear
Visibility: 10 miles , 16 km
2021/07/25 02:35 KSNL 250235Z AUTO 17006KT 10SM CLR 29/22 A2998 RMK AO2 T02880222
KSWO - Stillwater, Oklahoma, USA
Distance from station: S 17mi, 28km
Updated: Sat, 07-24-2021 8:53pm CDT
Clear
Clear
 Wind from S
Wind: S 7 mph , 11 km/h
Temperature: 88°F , 31°C
Heat Index: 96°F , 36°C
Dew Point: 73°F , 23°C
Humidity: 62%
Barometer: 1013.9 hPa
Clouds: Clear
Visibility: 10 miles , 16 km
2021/07/25 01:53 KSWO 250153Z 17006KT 10SM CLR 31/23 A2994 RMK AO2 SLP124 T03110233
 
KTIK - Tinker Afb, Oklahoma, USA
Distance from station: SSW 72mi, 115km
Updated: Sat, 07-24-2021 8:56pm CDT
Clear
Clear
 Wind from SSE
Wind: SSE 6 mph , 9 km/h
Temperature: 84°F , 29°C
Heat Index: 92°F , 33°C
Dew Point: 75°F , 24°C
Humidity: 74%
Barometer: 1014.2 hPa
Clouds: Clear
Visibility: 10 miles , 16 km
2021/07/25 01:56 KTIK 250156Z AUTO 16005KT 10SM CLR 29/24 A2995 RMK AO2 SLP133 T02910235 $
KTUL - Tulsa, Oklahoma, USA
Distance from station: ESE 65mi, 105km
Updated: Sat, 07-24-2021 8:53pm CDT
Few Clouds
Few Clouds
 Wind from S
Wind: S 6 mph , 9 km/h
Temperature: 91°F , 33°C
Heat Index: 102°F , 39°C
Dew Point: 75°F , 24°C
Humidity: 59%
Barometer: 1013.2 hPa
Clouds: Few Clouds
Visibility: 10 miles , 16 km
Cloud details: Few Clouds 5000 ft
Few Clouds 10000 ft
2021/07/25 01:53 KTUL 250153Z 18005KT 10SM FEW050 FEW100 33/24 A2992 RMK AO2 SLP123 T03280239